Time;durP1;ratioP1;P1;durP2;ratioP2;P2;SDS_P1;SDS_P2;PMS_P1;PMS_P2;Temp;Humidity;BMP_temperature;BMP_pressure;BME280_temperature;BME280_humidity;BME280_pressure;Samples;Min_cycle;Max_cycle;Signal;HPM_P1;HPM_P2
2022/10/04 00:00:24;;;;;;;9.97;6.17;;;7.90;99.90;;;;;;5114896;28;20183;-67
2022/10/04 00:02:50;;;;;;;9.57;6.63;;;7.80;99.90;;;;;;5115014;28;20184;-67
2022/10/04 00:05:20;;;;;;;7.97;5.87;;;7.70;99.90;;;;;;5116092;28;20198;-66
2022/10/04 00:07:51;;;;;;;15.20;6.70;;;7.80;99.90;;;;;;5131472;27;20644;-66
2022/10/04 00:10:30;;;;;;;10.37;6.70;;;7.90;99.90;;;;;;5135643;27;20606;-67
2022/10/04 00:12:59;;;;;;;12.90;6.87;;;7.90;99.90;;;;;;5135626;27;20247;-67
2022/10/04 00:15:31;;;;;;;11.50;6.83;;;7.90;99.90;;;;;;5136779;27;20164;-66
2022/10/04 00:18:11;;;;;;;11.30;6.77;;;7.90;99.90;;;;;;5136592;27;20160;-66
2022/10/04 00:20:57;;;;;;;8.50;6.63;;;7.90;99.90;;;;;;5136591;27;20222;-66
2022/10/04 00:23:23;;;;;;;11.90;6.40;;;7.90;99.90;;;;;;5135096;27;20278;-66
2022/10/04 00:26:21;;;;;;;8.23;7.00;;;7.90;99.90;;;;;;5136163;27;20307;-66
2022/10/04 00:28:48;;;;;;;11.97;7.40;;;7.90;99.90;;;;;;5090612;28;20192;-66
2022/10/04 00:31:19;;;;;;;10.40;7.40;;;7.90;99.90;;;;;;5095182;28;20189;-67
2022/10/04 00:34:17;;;;;;;10.67;7.20;;;7.90;99.90;;;;;;5095275;28;20232;-66
2022/10/04 00:36:56;;;;;;;10.93;6.83;;;7.80;99.90;;;;;;5106857;27;20194;-66
2022/10/04 00:39:33;;;;;;;11.67;7.50;;;7.80;99.90;;;;;;5135977;27;20630;-66
2022/10/04 00:42:30;;;;;;;11.77;7.40;;;7.80;99.90;;;;;;5134387;27;20218;-66
2022/10/04 00:44:59;;;;;;;8.77;6.90;;;7.80;99.90;;;;;;5135929;27;20267;-66
2022/10/04 00:47:30;;;;;;;9.13;7.17;;;7.80;99.90;;;;;;5135982;27;20168;-66
2022/10/04 00:50:39;;;;;;;10.70;7.23;;;7.80;99.90;;;;;;5134649;27;20223;-67
2022/10/04 00:53:18;;;;;;;7.33;6.50;;;7.70;99.90;;;;;;5092624;28;20173;-66
2022/10/04 00:55:58;;;;;;;7.90;5.77;;;7.60;99.90;;;;;;5075482;28;20173;-66
2022/10/04 00:58:28;;;;;;;7.37;5.97;;;7.60;99.90;;;;;;5111343;27;20193;-66
2022/10/04 01:00:55;;;;;;;7.00;6.30;;;7.60;99.90;;;;;;5115107;28;20204;-67
2022/10/04 01:03:32;;;;;;;7.30;6.60;;;7.60;99.90;;;;;;5114926;28;20283;-66
2022/10/04 01:06:03;;;;;;;6.60;6.00;;;7.60;99.90;;;;;;5115273;28;20152;-66
2022/10/04 01:08:34;;;;;;;7.30;6.43;;;7.50;99.90;;;;;;5095024;28;20240;-66
2022/10/04 01:11:34;;;;;;;6.30;5.70;;;7.50;99.90;;;;;;5095023;28;20196;-67
2022/10/04 01:14:13;;;;;;;6.30;5.70;;;7.50;99.90;;;;;;5095356;28;20181;-66
2022/10/04 01:16:39;;;;;;;7.27;6.27;;;7.60;99.90;;;;;;5095219;28;20565;-66
2022/10/04 01:19:31;;;;;;;7.37;6.43;;;7.60;99.90;;;;;;5094617;28;20175;-66
2022/10/04 01:22:06;;;;;;;7.63;6.23;;;7.60;99.90;;;;;;5093146;28;20632;-66
2022/10/04 01:24:37;;;;;;;8.97;6.43;;;7.60;99.90;;;;;;5094108;28;20690;-66
2022/10/04 01:27:23;;;;;;;7.70;6.13;;;7.60;99.90;;;;;;5094271;28;20153;-66
2022/10/04 01:29:49;;;;;;;9.67;7.10;;;7.60;99.90;;;;;;5094107;28;20169;-66
2022/10/04 01:32:16;;;;;;;7.20;6.43;;;7.60;99.90;;;;;;5094737;28;20518;-65
2022/10/04 01:34:41;;;;;;;7.67;6.47;;;7.60;99.90;;;;;;5094108;28;20169;-66
2022/10/04 01:37:07;;;;;;;7.97;6.40;;;7.60;99.90;;;;;;5112745;27;20176;-66
2022/10/04 01:39:33;;;;;;;10.13;7.23;;;7.70;99.90;;;;;;5134953;27;20636;-66
2022/10/04 01:42:08;;;;;;;7.30;6.70;;;7.60;99.90;;;;;;5133359;27;20226;-67
2022/10/04 01:44:55;;;;;;;7.43;6.70;;;7.60;99.90;;;;;;5135169;27;20635;-66
2022/10/04 01:47:40;;;;;;;7.70;6.90;;;7.60;99.90;;;;;;5134778;27;20171;-67
2022/10/04 01:50:14;;;;;;;8.80;7.07;;;7.60;99.90;;;;;;5135116;27;20180;-67
2022/10/04 01:53:00;;;;;;;9.10;7.20;;;7.70;99.90;;;;;;5134924;27;20156;-66
2022/10/04 01:55:33;;;;;;;10.10;7.37;;;7.60;99.90;;;;;;5133414;27;20536;-67
2022/10/04 01:58:21;;;;;;;10.37;7.80;;;7.60;99.90;;;;;;5128924;27;20233;-66
2022/10/04 02:01:00;;;;;;;12.23;7.60;;;7.60;99.90;;;;;;5114130;28;20651;-66
2022/10/04 02:03:32;;;;;;;11.13;7.13;;;7.60;99.90;;;;;;5114127;28;20196;-66
2022/10/04 02:06:01;;;;;;;9.17;7.17;;;7.70;99.90;;;;;;5114207;28;20690;-67
2022/10/04 02:08:31;;;;;;;8.03;6.67;;;7.60;99.90;;;;;;5094798;28;20168;-67
2022/10/04 02:11:00;;;;;;;8.53;6.77;;;7.70;99.90;;;;;;5094168;28;20185;-71
2022/10/04 02:13:32;;;;;;;9.63;6.90;;;7.70;99.90;;;;;;5092688;28;20203;-67
2022/10/04 02:15:58;;;;;;;9.47;7.43;;;7.70;99.90;;;;;;5093918;28;20165;-66
2022/10/04 02:18:26;;;;;;;7.07;6.37;;;7.60;99.90;;;;;;5093645;28;20173;-66
2022/10/04 02:20:53;;;;;;;7.97;7.03;;;7.60;99.90;;;;;;5093575;28;20267;-66
2022/10/04 02:23:22;;;;;;;7.87;7.00;;;7.70;99.90;;;;;;5093522;28;20224;-66
2022/10/04 02:25:48;;;;;;;9.00;7.23;;;7.70;99.90;;;;;;5093652;28;20168;-67
2022/10/04 02:28:15;;;;;;;8.47;7.27;;;7.70;99.90;;;;;;5101604;28;20176;-67
2022/10/04 02:32:56;;;;;;;8.57;7.43;;;7.70;99.90;;;;;;5113778;28;20346;-66
2022/10/04 02:33:43;;;;;;;8.57;6.93;;;7.80;99.90;;;;;;5113678;28;20547;-67
2022/10/04 02:36:10;;;;;;;9.43;7.13;;;7.80;99.90;;;;;;5115289;28;20675;-67
2022/10/04 02:38:45;;;;;;;8.53;7.40;;;7.80;99.90;;;;;;5134767;27;20171;-66
2022/10/04 02:41:32;;;;;;;10.33;7.40;;;7.80;99.90;;;;;;5133998;27;20201;-67
2022/10/04 02:44:20;;;;;;;8.57;7.40;;;7.80;99.90;;;;;;5134314;27;20270;-66
2022/10/04 02:47:04;;;;;;;13.60;7.93;;;7.80;99.90;;;;;;5132993;28;20591;-66
2022/10/04 02:49:33;;;;;;;8.97;7.70;;;7.80;99.90;;;;;;5134295;27;20167;-66
2022/10/04 02:52:08;;;;;;;9.77;7.23;;;7.70;99.90;;;;;;5134408;27;20192;-66
2022/10/04 02:54:53;;;;;;;9.57;7.10;;;7.70;99.90;;;;;;5134673;27;20187;-66
2022/10/04 02:57:21;;;;;;;8.23;6.87;;;7.70;99.90;;;;;;5133312;27;20174;-67
2022/10/04 02:59:47;;;;;;;8.17;7.37;;;7.70;99.90;;;;;;5117559;28;20176;-66
2022/10/04 03:02:25;;;;;;;8.87;7.60;;;7.80;99.90;;;;;;5117383;28;20188;-66
2022/10/04 03:04:54;;;;;;;8.00;7.20;;;7.80;99.90;;;;;;5117438;28;20188;-66
2022/10/04 03:07:21;;;;;;;9.17;8.10;;;7.80;99.90;;;;;;5127169;27;20183;-66
2022/10/04 03:09:48;;;;;;;10.73;8.37;;;7.90;99.90;;;;;;5136526;27;20542;-66
2022/10/04 03:12:14;;;;;;;10.87;8.57;;;7.90;99.90;;;;;;5137600;27;20196;-66
2022/10/04 03:14:41;;;;;;;10.90;8.03;;;7.90;99.90;;;;;;5137731;27;20176;-66
2022/10/04 03:17:08;;;;;;;11.57;8.87;;;7.90;99.90;;;;;;5136375;27;20667;-66
2022/10/04 03:19:36;;;;;;;10.47;9.30;;;7.90;99.90;;;;;;5137670;27;20168;-66
2022/10/04 03:22:06;;;;;;;12.30;8.87;;;7.90;99.90;;;;;;5137539;27;20192;-66
2022/10/04 03:24:45;;;;;;;13.17;8.50;;;7.90;99.90;;;;;;5137875;27;20183;-66
2022/10/04 03:27:33;;;;;;;10.27;8.47;;;7.90;99.90;;;;;;5137643;27;20148;-67
2022/10/04 03:30:00;;;;;;;13.47;9.90;;;7.90;99.90;;;;;;5096827;28;20153;-67
2022/10/04 03:32:29;;;;;;;15.17;8.80;;;7.90;99.90;;;;;;5096493;28;20248;-66
2022/10/04 03:35:01;;;;;;;12.30;9.50;;;7.90;99.90;;;;;;5096466;28;20256;-66
2022/10/04 03:37:31;;;;;;;13.23;8.80;;;7.90;99.90;;;;;;5120838;27;20190;-66
2022/10/04 03:39:58;;;;;;;9.43;8.50;;;7.90;99.90;;;;;;5137765;27;20164;-67
2022/10/04 03:42:26;;;;;;;13.67;8.40;;;7.90;99.90;;;;;;5137016;27;20678;-66
2022/10/04 03:45:00;;;;;;;8.27;7.47;;;7.90;99.90;;;;;;5137327;27;20651;-66
2022/10/04 03:47:34;;;;;;;8.10;6.97;;;7.90;99.90;;;;;;5137422;27;20156;-66
2022/10/04 03:50:14;;;;;;;11.47;7.50;;;7.90;99.90;;;;;;5137260;27;20159;-67
2022/10/04 03:52:49;;;;;;;9.57;7.40;;;7.80;99.90;;;;;;5136961;27;20160;-66
2022/10/04 03:55:16;;;;;;;8.97;8.03;;;7.80;99.90;;;;;;5136905;27;20743;-67
2022/10/04 03:57:42;;;;;;;13.90;8.33;;;7.80;99.90;;;;;;5133323;27;20267;-66
2022/10/04 04:00:09;;;;;;;10.50;8.63;;;7.80;99.90;;;;;;5114945;28;20544;-66
2022/10/04 04:02:52;;;;;;;10.77;8.80;;;7.80;99.90;;;;;;5116476;28;20173;-66
2022/10/04 04:05:31;;;;;;;12.20;8.33;;;7.80;99.90;;;;;;5116171;28;20184;-66
2022/10/04 04:08:13;;;;;;;10.87;8.87;;;7.90;99.90;;;;;;5132718;27;20198;-66
2022/10/04 04:10:50;;;;;;;9.97;8.33;;;7.90;99.90;;;;;;5135968;27;20691;-67
2022/10/04 04:13:18;;;;;;;13.30;8.07;;;7.80;99.90;;;;;;5136979;27;20160;-66
2022/10/04 04:15:45;;;;;;;14.73;8.27;;;7.80;99.90;;;;;;5135253;27;20211;-66
2022/10/04 04:18:18;;;;;;;12.33;8.80;;;7.80;99.90;;;;;;5136411;27;20164;-66
2022/10/04 04:20:45;;;;;;;14.13;9.90;;;7.80;99.90;;;;;;5136685;27;20196;-66
2022/10/04 04:23:14;;;;;;;13.40;10.10;;;7.80;99.90;;;;;;5136223;27;20167;-66
2022/10/04 04:25:56;;;;;;;11.33;9.90;;;7.80;99.90;;;;;;5136234;27;20681;-66
2022/10/04 04:28:26;;;;;;;16.17;10.30;;;7.70;99.90;;;;;;5127061;27;20211;-66
2022/10/04 04:31:06;;;;;;;19.13;10.20;;;7.70;99.90;;;;;;5114347;28;20196;-66
2022/10/04 04:33:42;;;;;;;15.40;9.97;;;7.70;99.90;;;;;;5115752;28;20236;-66
2022/10/04 04:36:13;;;;;;;14.20;10.47;;;7.60;99.90;;;;;;5116780;27;20167;-67
2022/10/04 04:39:33;;;;;;;14.60;9.73;;;7.50;99.90;;;;;;5137437;27;20209;-67
2022/10/04 04:41:27;;;;;;;14.80;10.10;;;7.50;99.90;;;;;;5136547;27;20211;-66
2022/10/04 04:43:53;;;;;;;14.63;9.53;;;7.50;99.90;;;;;;5135977;27;20191;-66
2022/10/04 04:46:20;;;;;;;12.40;8.90;;;7.50;99.90;;;;;;5134565;27;20170;-66
2022/10/04 04:48:48;;;;;;;10.00;8.43;;;7.50;99.90;;;;;;5135847;27;20156;-66
2022/10/04 04:51:20;;;;;;;11.13;8.70;;;7.50;99.90;;;;;;5135727;27;20199;-66
2022/10/04 04:53:48;;;;;;;12.17;8.27;;;7.50;99.90;;;;;;5135962;27;20163;-66
2022/10/04 04:56:18;;;;;;;10.53;8.40;;;7.40;99.90;;;;;;5135825;27;20174;-66
2022/10/04 04:58:47;;;;;;;17.37;8.77;;;7.50;99.90;;;;;;5123174;27;20191;-66
2022/10/04 05:01:41;;;;;;;10.23;8.50;;;7.40;99.90;;;;;;5115066;28;20687;-66
2022/10/04 05:04:12;;;;;;;11.23;9.10;;;7.30;99.90;;;;;;5115285;28;20184;-66
2022/10/04 05:06:47;;;;;;;11.07;9.97;;;7.20;99.90;;;;;;5120355;27;20179;-66
2022/10/04 05:09:32;;;;;;;13.27;9.40;;;7.10;99.90;;;;;;5135404;27;20154;-66
2022/10/04 05:12:21;;;;;;;18.27;10.07;;;7.10;99.90;;;;;;5135315;27;20307;-66
2022/10/04 05:14:52;;;;;;;12.77;9.50;;;7.00;99.90;;;;;;5135986;27;20535;-66
2022/10/04 05:17:32;;;;;;;12.83;9.33;;;7.00;99.90;;;;;;5135781;27;20255;-65
2022/10/04 05:20:01;;;;;;;13.17;9.20;;;7.00;99.90;;;;;;5135375;27;20580;-65
2022/10/04 05:22:29;;;;;;;12.33;8.57;;;7.10;99.90;;;;;;5134488;27;20263;-65
2022/10/04 05:24:59;;;;;;;11.53;9.00;;;7.10;99.90;;;;;;5133771;27;20200;-65
2022/10/04 05:27:36;;;;;;;13.20;9.77;;;7.10;99.90;;;;;;5133617;27;20156;-65
2022/10/04 05:30:02;;;;;;;15.37;9.90;;;7.10;99.90;;;;;;5114525;28;20172;-65
2022/10/04 05:32:38;;;;;;;15.43;10.30;;;7.10;99.90;;;;;;5114410;28;20168;-65
2022/10/04 05:35:19;;;;;;;12.03;9.03;;;7.10;99.90;;;;;;5113128;28;20176;-65
2022/10/04 05:37:51;;;;;;;14.40;11.10;;;7.20;99.90;;;;;;5128981;27;20202;-65
2022/10/04 05:40:22;;;;;;;13.33;10.33;;;7.20;99.90;;;;;;5134725;27;20195;-66
2022/10/04 05:42:50;;;;;;;15.57;10.87;;;7.20;99.90;;;;;;5134913;27;20198;-65
2022/10/04 05:45:22;;;;;;;15.17;11.37;;;7.30;99.90;;;;;;5135109;27;20279;-65
2022/10/04 05:47:51;;;;;;;15.37;11.73;;;7.30;99.90;;;;;;5135362;27;20150;-65
2022/10/04 05:50:48;;;;;;;15.80;11.23;;;7.30;99.90;;;;;;5134990;27;20195;-65
2022/10/04 05:53:32;;;;;;;16.67;10.80;;;7.30;99.90;;;;;;5132889;27;20191;-65
2022/10/04 05:56:22;;;;;;;12.27;10.80;;;7.30;99.90;;;;;;5134667;27;20171;-65
2022/10/04 05:59:10;;;;;;;23.13;11.40;;;7.30;99.90;;;;;;5121527;27;20208;-65
2022/10/04 06:01:47;;;;;;;12.23;10.53;;;7.30;99.90;;;;;;5084169;28;20217;-65
2022/10/04 06:04:35;;;;;;;12.50;10.33;;;7.40;99.90;;;;;;5113875;28;20632;-65
2022/10/04 06:07:24;;;;;;;16.30;12.23;;;7.40;99.90;;;;;;5122545;28;20187;-65
2022/10/04 06:10:04;;;;;;;13.07;11.20;;;7.40;99.90;;;;;;5135036;27;20148;-70
2022/10/04 06:12:32;;;;;;;12.33;9.83;;;7.40;99.90;;;;;;5134526;27;20221;-70
2022/10/04 06:15:23;;;;;;;14.47;9.70;;;7.40;99.90;;;;;;5133331;28;20183;-70
2022/10/04 06:18:21;;;;;;;11.77;9.73;;;7.50;99.90;;;;;;5134517;27;20178;-70
2022/10/04 06:21:17;;;;;;;15.47;9.80;;;7.50;99.90;;;;;;5134382;27;20651;-70
2022/10/04 06:23:55;;;;;;;11.93;9.13;;;7.50;99.90;;;;;;5133416;28;20775;-69
2022/10/04 06:26:27;;;;;;;12.57;10.10;;;7.60;99.90;;;;;;5134575;27;20175;-70
2022/10/04 06:29:02;;;;;;;12.47;9.63;;;7.60;99.90;;;;;;5120555;27;20217;-70
2022/10/04 06:31:46;;;;;;;16.37;10.07;;;7.70;99.90;;;;;;5114163;28;20198;-70
2022/10/04 06:34:24;;;;;;;11.43;10.23;;;7.70;99.90;;;;;;5117952;28;20237;-70
2022/10/04 06:37:25;;;;;;;15.40;10.90;;;7.80;99.90;;;;;;5124877;27;20228;-70
2022/10/04 06:40:25;;;;;;;14.70;10.90;;;7.90;99.90;;;;;;5138662;27;20162;-69
2022/10/04 06:43:30;;;;;;;14.57;11.67;;;8.00;99.90;;;;;;5139157;27;20269;-71
2022/10/04 06:46:14;;;;;;;17.40;11.37;;;8.10;99.90;;;;;;5139645;27;20236;-66
2022/10/04 06:48:53;;;;;;;12.63;10.50;;;8.10;99.90;;;;;;5140598;27;20256;-66
2022/10/04 06:51:52;;;;;;;16.97;10.93;;;8.20;99.90;;;;;;5138648;27;20188;-66
2022/10/04 06:54:42;;;;;;;14.70;10.60;;;8.30;99.90;;;;;;5137689;27;20172;-65
2022/10/04 06:57:28;;;;;;;15.73;11.90;;;8.40;99.90;;;;;;5137100;27;20266;-66
2022/10/04 07:00:10;;;;;;;16.13;12.47;;;8.50;99.90;;;;;;5097018;28;20158;-65
2022/10/04 07:02:56;;;;;;;18.53;13.20;;;8.60;99.90;;;;;;5097387;28;20173;-69
2022/10/04 07:05:40;;;;;;;19.90;12.87;;;8.70;99.90;;;;;;5097100;28;20185;-69
2022/10/04 07:08:29;;;;;;;24.80;15.77;;;8.70;99.90;;;;;;5132477;27;20639;-69
2022/10/04 07:11:09;;;;;;;17.23;13.63;;;8.80;99.90;;;;;;5137731;27;20271;-69
2022/10/04 07:13:59;;;;;;;14.90;13.03;;;8.90;99.90;;;;;;5138553;27;20259;-69
2022/10/04 07:16:41;;;;;;;23.73;13.03;;;9.00;99.90;;;;;;5136382;27;20198;-69
2022/10/04 07:19:19;;;;;;;15.27;11.73;;;9.10;99.90;;;;;;5137876;27;20238;-69
2022/10/04 07:22:00;;;;;;;15.30;11.80;;;9.20;99.90;;;;;;5137536;27;20187;-69
2022/10/04 07:24:55;;;;;;;16.00;12.67;;;9.40;99.90;;;;;;5137726;27;20183;-65
2022/10/04 07:27:45;;;;;;;16.70;13.03;;;9.50;99.90;;;;;;5136661;27;20157;-66
2022/10/04 07:30:17;;;;;;;14.90;12.43;;;9.60;99.90;;;;;;5117037;28;20231;-65
2022/10/04 07:32:57;;;;;;;17.97;12.83;;;9.70;99.90;;;;;;5115448;28;20644;-65
2022/10/04 07:35:34;;;;;;;14.97;12.20;;;9.80;99.90;;;;;;5117031;28;20164;-65
2022/10/04 07:38:14;;;;;;;15.07;12.40;;;9.90;99.90;;;;;;5133567;27;20235;-65
2022/10/04 07:41:07;;;;;;;15.63;12.60;;;9.90;99.90;;;;;;5137118;27;20187;-66
2022/10/04 07:43:57;;;;;;;14.80;11.57;;;10.10;99.90;;;;;;5136180;27;20674;-65
2022/10/04 07:46:39;;;;;;;17.30;12.23;;;10.30;99.90;;;;;;5136528;27;20188;-65
2022/10/04 07:49:19;;;;;;;15.43;11.17;;;10.40;99.90;;;;;;5137070;27;20183;-65
2022/10/04 07:52:06;;;;;;;19.57;11.73;;;10.50;99.90;;;;;;5137044;27;20579;-65
2022/10/04 07:55:15;;;;;;;14.83;12.20;;;10.60;99.90;;;;;;5135687;27;20686;-65
2022/10/04 07:58:00;;;;;;;14.63;11.37;;;10.70;99.90;;;;;;5121873;27;20208;-65
2022/10/04 08:00:47;;;;;;;12.97;11.10;;;10.80;99.90;;;;;;5115951;28;20192;-65
2022/10/04 08:03:41;;;;;;;16.20;10.40;;;10.80;99.90;;;;;;5116092;27;20160;-65
2022/10/04 08:06:29;;;;;;;14.60;10.73;;;10.80;99.90;;;;;;5116836;27;20194;-66
2022/10/04 08:09:20;;;;;;;19.90;10.57;;;10.80;99.90;;;;;;5105229;27;20267;-65
2022/10/04 08:12:04;;;;;;;13.63;10.27;;;10.80;99.90;;;;;;5136450;27;20239;-65
2022/10/04 08:14:50;;;;;;;12.17;8.70;;;10.80;99.90;;;;;;5135357;27;20168;-65
2022/10/04 08:17:19;;;;;;;16.67;9.93;;;10.80;99.90;;;;;;5136459;27;20600;-65
2022/10/04 08:19:53;;;;;;;17.92;9.65;;;10.80;99.90;;;;;;5136329;27;20172;-65
2022/10/04 08:23:06;;;;;;;13.03;9.63;;;10.90;99.90;;;;;;5137206;27;20201;-69
2022/10/04 08:25:53;;;;;;;14.23;9.50;;;10.90;99.90;;;;;;5134869;27;20700;-69
2022/10/04 08:31:31;;;;;;;17.13;9.40;;;11.00;99.90;;;;;;5115601;28;20339;-69
2022/10/04 08:34:10;;;;;;;13.97;9.47;;;11.20;99.90;;;;;;5115639;28;20243;-69
2022/10/04 08:36:44;;;;;;;14.53;9.90;;;11.50;99.90;;;;;;5120308;27;20183;-69
2022/10/04 08:39:46;;;;;;;15.43;9.03;;;11.80;99.90;;;;;;5135853;27;20637;-69
2022/10/04 08:42:45;;;;;;;14.80;8.60;;;11.90;99.90;;;;;;5135649;27;20251;-69
2022/10/04 08:45:52;;;;;;;17.67;8.37;;;12.10;99.90;;;;;;5136612;27;20188;-69
2022/10/04 08:48:41;;;;;;;11.40;8.18;;;12.30;99.90;;;;;;5130617;27;20259;-70
2022/10/04 08:51:29;;;;;;;19.55;9.05;;;12.60;99.90;;;;;;5134632;27;20199;-69
2022/10/04 08:54:18;;;;;;;15.50;7.63;;;12.90;99.90;;;;;;5135851;27;20156;-69
2022/10/04 08:57:09;;;;;;;14.48;8.30;;;13.00;99.90;;;;;;5135523;27;20644;-69
2022/10/04 09:00:08;;;;;;;11.30;7.63;;;13.00;99.90;;;;;;5115995;27;20183;-69
2022/10/04 09:02:55;;;;;;;10.77;7.22;;;13.10;99.90;;;;;;5114885;28;20171;-69
2022/10/04 09:05:56;;;;;;;14.05;7.55;;;13.20;99.90;;;;;;5115616;28;20249;-69
2022/10/04 09:08:28;;;;;;;9.15;6.68;;;13.40;99.90;;;;;;5135016;27;20266;-69
2022/10/04 09:10:55;;;;;;;10.73;6.43;;;13.40;99.90;;;;;;5135371;27;21027;-69
2022/10/04 09:13:48;;;;;;;13.77;6.93;;;13.50;99.90;;;;;;5135376;27;20168;-69
2022/10/04 09:16:27;;;;;;;13.07;7.18;;;13.70;99.90;;;;;;5135784;27;20204;-69
2022/10/04 09:19:36;;;;;;;9.43;6.80;;;13.90;99.90;;;;;;5135480;27;20463;-69
2022/10/04 09:22:23;;;;;;;9.82;6.82;;;13.90;99.90;;;;;;5135389;27;20187;-69
2022/10/04 09:25:08;;;;;;;11.43;6.60;;;14.20;99.90;;;;;;5135032;27;20629;-69
2022/10/04 09:28:01;;;;;;;11.85;6.60;;;14.30;99.90;;;;;;5132386;27;20163;-69
2022/10/04 09:30:46;;;;;;;11.57;6.53;;;14.50;99.90;;;;;;5113255;28;20575;-69
2022/10/04 09:33:30;;;;;;;11.52;7.18;;;14.50;99.90;;;;;;5114531;28;20157;-69
2022/10/04 09:36:13;;;;;;;12.43;6.85;;;14.60;99.90;;;;;;5114366;28;20157;-69
2022/10/04 09:38:54;;;;;;;11.32;7.22;;;14.60;99.90;;;;;;5094059;28;20157;-69
2022/10/04 09:41:33;;;;;;;9.07;6.70;;;14.60;99.90;;;;;;5093701;28;20203;-69
2022/10/04 09:44:02;;;;;;;9.70;6.22;;;14.70;99.90;;;;;;5093752;28;20301;-69
2022/10/04 09:46:43;;;;;;;12.27;6.70;;;14.70;99.90;;;;;;5093639;28;20169;-69
2022/10/04 09:49:21;;;;;;;12.55;7.15;;;14.80;99.90;;;;;;5094068;28;20184;-69
2022/10/04 09:52:00;;;;;;;9.10;5.38;;;14.90;99.90;;;;;;5094113;28;20192;-69
2022/10/04 09:54:43;;;;;;;8.30;5.40;;;15.00;99.90;;;;;;5094283;28;20606;-68
2022/10/04 09:57:15;;;;;;;10.00;6.05;;;15.00;99.90;;;;;;5092556;28;20304;-69
2022/10/04 09:59:52;;;;;;;16.30;6.47;;;15.10;99.90;;;;;;5113100;28;20195;-69
2022/10/04 10:02:37;;;;;;;10.88;5.43;;;15.30;99.90;;;;;;5113026;28;20207;-69
2022/10/04 10:05:22;;;;;;;8.75;5.45;;;15.30;99.90;;;;;;5114030;28;20255;-69
2022/10/04 10:08:09;;;;;;;7.57;5.40;;;15.40;99.90;;;;;;5127215;27;20681;-69
2022/10/04 10:14:06;;;;;;;9.90;5.00;;;15.50;99.90;;;;;;5134499;28;20167;-69
2022/10/04 10:17:09;;;;;;;9.07;5.22;;;15.60;99.90;;;;;;5134433;27;20300;-69
2022/10/04 10:19:56;;;;;;;7.80;5.07;;;15.70;99.90;;;;;;5134782;27;20156;-69
2022/10/04 10:22:31;;;;;;;9.60;5.32;;;15.80;99.90;;;;;;5134335;27;20199;-69
2022/10/04 10:25:34;;;;;;;7.43;4.93;;;15.80;99.90;;;;;;5134275;27;20659;-69
2022/10/04 10:28:27;;;;;;;8.75;4.63;;;15.90;99.90;;;;;;5126666;28;20269;-69
2022/10/04 10:31:07;;;;;;;13.93;5.13;;;15.90;99.90;;;;;;5109886;28;20204;-69
2022/10/04 10:34:07;;;;;;;8.30;4.50;;;16.00;99.90;;;;;;5114488;28;20578;-69
2022/10/04 10:36:54;;;;;;;6.47;4.55;;;16.10;99.90;;;;;;5118538;28;20687;-69
2022/10/04 10:39:41;;;;;;;7.28;4.93;;;16.20;99.90;;;;;;5134355;27;20175;-69
2022/10/04 10:42:31;;;;;;;7.75;4.80;;;16.40;99.90;;;;;;5134249;27;20207;-69
2022/10/04 10:45:21;;;;;;;8.30;4.40;;;16.50;99.90;;;;;;5134189;27;20195;-69
2022/10/04 10:48:03;;;;;;;9.77;5.13;;;16.60;99.90;;;;;;5134629;27;20553;-69
2022/10/04 10:51:02;;;;;;;6.68;4.82;;;16.80;99.90;;;;;;5132961;28;20839;-69
2022/10/04 10:53:52;;;;;;;6.63;4.63;;;16.80;99.90;;;;;;5134917;27;20672;-69
2022/10/04 10:56:18;;;;;;;7.88;4.07;;;17.00;99.90;;;;;;5134544;27;20169;-69
2022/10/04 10:58:49;;;;;;;7.45;4.88;;;17.10;99.90;;;;;;5121639;27;20183;-69
2022/10/04 11:01:21;;;;;;;9.98;4.78;;;17.20;99.90;;;;;;5113536;28;20572;-69
2022/10/04 11:04:16;;;;;;;6.32;4.38;;;17.20;99.90;;;;;;5112220;28;20682;-69
2022/10/04 11:07:17;;;;;;;9.27;4.20;;;17.30;99.90;;;;;;5119141;28;20184;-69
2022/10/04 11:10:04;;;;;;;5.07;3.80;;;17.40;99.90;;;;;;5134275;27;20148;-69
2022/10/04 11:12:48;;;;;;;9.75;4.28;;;17.50;99.90;;;;;;5133038;28;20188;-69
2022/10/04 11:15:33;;;;;;;6.00;4.18;;;17.60;99.90;;;;;;5134616;27;20156;-69
2022/10/04 11:18:17;;;;;;;7.50;4.32;;;17.70;99.90;;;;;;5132842;27;20180;-69
2022/10/04 11:21:07;;;;;;;7.30;3.67;;;17.70;99.90;;;;;;5136904;27;20244;-69
2022/10/04 11:23:50;;;;;;;7.35;4.85;;;17.90;99.90;;;;;;5137452;27;20527;-69
2022/10/04 11:26:19;;;;;;;6.43;4.50;;;18.00;99.90;;;;;;5137326;27;20164;-69
2022/10/04 11:28:48;;;;;;;7.32;4.03;;;18.10;99.90;;;;;;5123617;27;20586;-69
2022/10/04 11:31:54;;;;;;;11.23;4.38;;;18.20;99.90;;;;;;5115409;28;20571;-69
2022/10/04 11:34:56;;;;;;;9.45;4.25;;;18.30;99.90;;;;;;5115431;28;20554;-69
2022/10/04 11:37:42;;;;;;;6.95;3.95;;;18.40;99.90;;;;;;5126822;27;20187;-69
2022/10/04 11:40:20;;;;;;;7.70;4.28;;;18.50;99.90;;;;;;5137082;27;20175;-69
2022/10/04 11:43:18;;;;;;;9.40;4.75;;;18.60;99.90;;;;;;5135490;27;20198;-69
2022/10/04 11:46:26;;;;;;;5.95;3.72;;;18.70;99.90;;;;;;5135749;27;20196;-69
2022/10/04 11:49:02;;;;;;;6.18;3.63;;;18.60;99.90;;;;;;5102985;27;20340;-69
2022/10/04 11:51:47;;;;;;;7.63;4.03;;;18.70;99.90;;;;;;5137582;27;20555;-69
2022/10/04 11:54:50;;;;;;;7.20;4.05;;;18.90;99.90;;;;;;5137039;27;20147;-69
2022/10/04 11:57:36;;;;;;;7.80;3.95;;;19.10;99.90;;;;;;5136795;27;20516;-69
2022/10/04 12:00:19;;;;;;;5.65;3.47;;;18.90;99.90;;;;;;5093930;28;20725;-69
2022/10/04 12:03:26;;;;;;;4.72;3.40;;;19.10;99.90;;;;;;5096141;28;20181;-69
2022/10/04 12:06:32;;;;;;;4.07;3.40;;;19.20;99.90;;;;;;5095343;28;20696;-69
2022/10/04 12:09:13;;;;;;;4.72;3.38;;;19.40;99.90;;;;;;5096405;28;20191;-69
2022/10/04 12:14:50;;;;;;;7.07;3.10;;;19.70;99.90;;;;;;5095674;28;20218;-69
2022/10/04 12:17:45;;;;;;;4.32;3.10;;;19.80;99.90;;;;;;5095717;28;20193;-69
2022/10/04 12:20:35;;;;;;;6.18;3.47;;;19.70;99.90;;;;;;5094184;28;20164;-69
2022/10/04 12:23:35;;;;;;;4.28;3.22;;;19.70;99.90;;;;;;5096852;28;20169;-69
2022/10/04 12:26:19;;;;;;;4.90;3.20;;;19.50;99.90;;;;;;5097302;28;20354;-69
2022/10/04 12:29:23;;;;;;;5.18;3.40;;;19.50;99.90;;;;;;5109595;28;20176;-69
2022/10/04 12:31:57;;;;;;;4.82;3.00;;;19.50;99.90;;;;;;5115750;28;20219;-69
2022/10/04 12:34:41;;;;;;;4.68;3.10;;;19.50;99.90;;;;;;5114825;28;20160;-69
2022/10/04 12:37:39;;;;;;;6.60;3.30;;;19.80;99.90;;;;;;5125351;27;20232;-69
2022/10/04 12:40:16;;;;;;;3.72;3.00;;;19.90;99.90;;;;;;5136109;27;20218;-69
2022/10/04 12:42:54;;;;;;;6.97;3.08;;;19.90;99.90;;;;;;5135884;27;20239;-69
2022/10/04 12:45:38;;;;;;;4.97;2.72;;;20.20;99.90;;;;;;5135704;27;20271;-69
2022/10/04 12:48:24;;;;;;;4.10;2.85;;;20.10;99.90;;;;;;5134632;27;20176;-69
2022/10/04 12:51:08;;;;;;;3.25;2.95;;;20.10;99.90;;;;;;5136340;27;20198;-69
2022/10/04 12:53:46;;;;;;;4.93;2.33;;;20.10;99.90;;;;;;5134515;27;20172;-69
2022/10/04 12:56:36;;;;;;;5.43;2.60;;;20.10;99.90;;;;;;5135751;27;20164;-69
2022/10/04 12:59:34;;;;;;;4.05;3.03;;;20.20;99.90;;;;;;5120720;27;20183;-69
2022/10/04 13:02:27;;;;;;;3.90;2.50;;;20.10;99.90;;;;;;5115134;28;20195;-69
2022/10/04 13:05:28;;;;;;;4.72;2.83;;;20.10;99.90;;;;;;5115016;28;20271;-69
2022/10/04 13:08:19;;;;;;;3.97;2.75;;;20.10;99.90;;;;;;5052125;28;20212;-69
2022/10/04 13:11:23;;;;;;;2.80;2.60;;;20.30;99.90;;;;;;5091266;28;20201;-69
2022/10/04 13:14:13;;;;;;;5.82;2.90;;;20.00;99.90;;;;;;5091003;28;20181;-69
2022/10/04 13:16:48;;;;;;;4.80;3.03;;;19.90;99.90;;;;;;5094396;28;20173;-69
2022/10/04 13:19:23;;;;;;;3.42;2.92;;;20.10;99.90;;;;;;5094399;28;20157;-69
2022/10/04 13:22:10;;;;;;;3.50;2.70;;;20.20;99.90;;;;;;5094214;28;20200;-69
2022/10/04 13:25:00;;;;;;;4.60;2.97;;;20.10;99.90;;;;;;5092829;28;20185;-69
2022/10/04 13:27:44;;;;;;;3.00;2.72;;;19.80;99.90;;;;;;5095449;28;20165;-69
2022/10/04 13:30:25;;;;;;;6.50;3.08;;;19.80;99.90;;;;;;5114422;28;20210;-69
2022/10/04 13:33:09;;;;;;;4.88;2.85;;;19.80;99.90;;;;;;5115041;28;20173;-69
2022/10/04 13:36:12;;;;;;;3.63;2.42;;;19.70;99.90;;;;;;5114718;28;20179;-69
2022/10/04 13:38:54;;;;;;;6.03;3.05;;;19.60;99.90;;;;;;5094262;28;20177;-69
2022/10/04 13:41:32;;;;;;;3.78;2.38;;;19.50;99.90;;;;;;5093707;28;20566;-69
2022/10/04 13:44:16;;;;;;;2.80;2.53;;;19.50;99.90;;;;;;5093655;28;20267;-69
2022/10/04 13:47:03;;;;;;;3.17;2.58;;;19.50;99.90;;;;;;5094168;28;20150;-69
2022/10/04 13:50:03;;;;;;;3.17;2.47;;;19.40;99.90;;;;;;5093965;28;20210;-69
2022/10/04 13:58:40;;;;;;;4.32;3.05;;;19.50;99.90;;;;;;5101885;28;20556;-69
2022/10/04 14:01:42;;;;;;;4.85;3.15;;;19.40;99.90;;;;;;5114530;28;20295;-69
2022/10/04 14:04:30;;;;;;;3.65;2.90;;;19.20;99.90;;;;;;5113797;27;20261;-69
2022/10/04 14:07:19;;;;;;;4.65;3.28;;;19.20;99.90;;;;;;5116157;28;20200;-69
2022/10/04 14:09:45;;;;;;;5.30;3.00;;;19.20;99.90;;;;;;5134939;27;20160;-69
2022/10/04 14:12:31;;;;;;;4.10;2.80;;;19.20;99.90;;;;;;5134410;27;20270;-69